createdAt,value
2017-12-16T00:00:01.931Z,5.15
2017-12-16T00:01:10.735Z,5.15
2017-12-16T00:02:19.536Z,5.16
2017-12-16T00:03:28.338Z,5.24
2017-12-16T00:04:36.870Z,5.1
2017-12-16T00:05:45.671Z,5.1
2017-12-16T00:06:54.535Z,5.16
2017-12-16T00:08:03.064Z,5.2
2017-12-16T00:09:12.179Z,5.18
2017-12-16T00:10:20.712Z,5.21
2017-12-16T00:11:29.780Z,5.16
2017-12-16T00:12:38.577Z,5.24
2017-12-16T00:13:47.111Z,5.18
2017-12-16T00:14:55.643Z,5.24
2017-12-16T00:16:04.176Z,5.23
2017-12-16T00:17:12.711Z,5.24
2017-12-16T00:18:21.248Z,5.2
2017-12-16T00:19:30.316Z,5.27
2017-12-16T00:20:39.889Z,5.23
2017-12-16T00:21:48.784Z,5.26
2017-12-16T00:22:57.449Z,5.23
2017-12-16T00:24:06.519Z,5.27
2017-12-16T00:25:15.584Z,5.23
2017-12-16T00:26:24.117Z,5.23
2017-12-16T00:27:32.648Z,5.24
2017-12-16T00:28:41.711Z,5.26
2017-12-16T00:29:50.786Z,5.31
2017-12-16T00:30:59.317Z,5.23
2017-12-16T00:32:07.850Z,5.27
2017-12-16T00:33:16.386Z,5.16
2017-12-16T00:34:25.457Z,5.26
2017-12-16T00:35:34.259Z,5.3
2017-12-16T00:36:42.794Z,5.37
2017-12-16T00:37:51.918Z,5.36
2017-12-16T00:39:00.719Z,5.3
2017-12-16T00:40:09.531Z,5.34
2017-12-16T00:41:18.601Z,5.33
2017-12-16T00:42:27.666Z,5.31
2017-12-16T00:43:36.474Z,5.33
2017-12-16T00:44:45.272Z,5.34
2017-12-16T00:45:54.073Z,5.34
2017-12-16T00:47:02.613Z,5.34
2017-12-16T00:48:11.416Z,5.31
2017-12-16T00:49:20.270Z,5.31
2017-12-16T00:50:29.068Z,5.37
2017-12-16T00:51:37.872Z,5.37
2017-12-16T00:52:46.940Z,5.37
2017-12-16T00:53:55.474Z,5.39
2017-12-16T00:55:04.548Z,5.44
2017-12-16T00:56:13.619Z,5.45
2017-12-16T00:57:22.155Z,5.41
2017-12-16T00:58:30.954Z,5.42
2017-12-16T00:59:39.488Z,5.46
2017-12-16T01:00:48.073Z,5.55
2017-12-16T01:01:56.875Z,5.48
2017-12-16T01:03:05.673Z,5.52
2017-12-16T01:04:14.204Z,5.52
2017-12-16T01:05:23.006Z,5.51
2017-12-16T01:06:31.807Z,5.49
2017-12-16T01:07:40.605Z,5.49
2017-12-16T01:08:49.137Z,5.57
2017-12-16T01:09:58.227Z,5.46
2017-12-16T01:11:07.567Z,5.49
2017-12-16T01:12:16.420Z,5.45
2017-12-16T01:13:25.484Z,5.51
2017-12-16T01:14:34.552Z,5.49
2017-12-16T01:15:43.350Z,5.54
2017-12-16T01:16:52.146Z,5.51
2017-12-16T01:18:00.948Z,5.42
2017-12-16T01:19:09.763Z,5.45
2017-12-16T01:20:18.816Z,5.37
2017-12-16T01:21:27.621Z,5.36
2017-12-16T01:22:36.686Z,5.36
2017-12-16T01:23:45.758Z,5.27
2017-12-16T01:24:54.559Z,5.24
2017-12-16T01:26:03.357Z,5.24
2017-12-16T01:27:11.890Z,5.16
2017-12-16T01:28:20.692Z,5.03
2017-12-16T01:29:29.493Z,5.08
2017-12-16T01:30:38.564Z,5.09
2017-12-16T01:31:47.096Z,5.03
2017-12-16T01:32:55.896Z,4.92
2017-12-16T01:34:04.428Z,4.91
2017-12-16T01:35:13.956Z,4.75
2017-12-16T01:36:23.025Z,4.75
2017-12-16T01:37:31.559Z,4.75
2017-12-16T01:38:40.366Z,4.74
2017-12-16T01:39:49.178Z,4.78
2017-12-16T01:40:57.994Z,4.68
2017-12-16T01:42:06.806Z,4.58
2017-12-16T01:43:15.612Z,4.61
2017-12-16T01:44:24.155Z,4.51
2017-12-16T01:45:33.231Z,4.48
2017-12-16T01:46:42.360Z,4.46
2017-12-16T01:47:50.891Z,4.4
2017-12-16T01:48:59.424Z,4.4
2017-12-16T01:50:07.958Z,4.42
2017-12-16T01:51:17.030Z,4.36
2017-12-16T01:52:25.832Z,4.38
2017-12-16T01:53:34.368Z,4.29
2017-12-16T01:54:43.435Z,4.3
2017-12-16T01:55:52.505Z,4.15
2017-12-16T01:57:01.303Z,4.17
2017-12-16T01:58:10.098Z,4.14
2017-12-16T01:59:18.634Z,4.03
2017-12-16T02:00:27.168Z,4.07
2017-12-16T02:01:36.022Z,3.96
2017-12-16T02:02:44.827Z,4.03
2017-12-16T02:03:53.673Z,4.08
2017-12-16T02:05:02.743Z,4.02
2017-12-16T02:06:11.558Z,4.02
2017-12-16T02:07:20.630Z,3.99
2017-12-16T02:08:29.503Z,3.99
2017-12-16T02:09:39.339Z,4
2017-12-16T02:10:47.879Z,3.93
2017-12-16T02:11:56.407Z,4.02
2017-12-16T02:13:05.482Z,3.9
2017-12-16T02:14:14.282Z,3.92
2017-12-16T02:15:22.812Z,3.89
2017-12-16T02:16:31.341Z,3.93
2017-12-16T02:17:40.142Z,3.93
2017-12-16T02:18:48.676Z,3.97
2017-12-16T02:19:57.476Z,4.02
2017-12-16T02:21:06.270Z,4.03
2017-12-16T02:22:15.334Z,4
2017-12-16T02:23:24.134Z,4.17
2017-12-16T02:24:32.940Z,3.97
2017-12-16T02:25:41.734Z,4.04
2017-12-16T02:26:50.317Z,4.08
2017-12-16T02:27:58.849Z,4.12
2017-12-16T02:29:07.382Z,4.14
2017-12-16T02:30:16.183Z,4.14
2017-12-16T02:31:25.260Z,4.15
2017-12-16T02:32:33.790Z,4.33
2017-12-16T02:33:42.325Z,4.26
2017-12-16T02:34:51.927Z,4.33
2017-12-16T02:36:00.718Z,4.38
2017-12-16T02:37:09.784Z,4.39
2017-12-16T02:38:18.850Z,4.42
2017-12-16T02:39:27.649Z,4.35
2017-12-16T02:40:36.184Z,4.36
2017-12-16T02:41:45.256Z,4.36
2017-12-16T02:42:54.603Z,4.33
2017-12-16T02:44:03.402Z,4.36
2017-12-16T02:45:11.934Z,4.44
2017-12-16T02:46:20.467Z,4.4
2017-12-16T02:47:29.263Z,4.42
2017-12-16T02:48:38.065Z,4.42
2017-12-16T02:49:47.132Z,4.38
2017-12-16T02:50:55.664Z,4.42
2017-12-16T02:52:04.740Z,4.42
2017-12-16T02:53:13.273Z,4.38
2017-12-16T02:54:22.341Z,4.4
2017-12-16T02:55:31.187Z,4.4
2017-12-16T02:56:39.988Z,4.44
2017-12-16T02:57:48.525Z,4.42
2017-12-16T02:58:57.324Z,4.36
2017-12-16T03:00:05.855Z,4.46
2017-12-16T03:01:14.656Z,4.44
2017-12-16T03:02:23.459Z,4.47
2017-12-16T03:03:31.993Z,4.46
2017-12-16T03:04:40.792Z,4.47
2017-12-16T03:05:49.590Z,4.42
2017-12-16T03:06:58.388Z,4.48
2017-12-16T03:08:07.192Z,4.46
2017-12-16T03:09:16.254Z,4.46
2017-12-16T03:10:24.790Z,4.47
2017-12-16T03:11:33.325Z,4.51
2017-12-16T03:12:41.909Z,4.5
2017-12-16T03:13:50.440Z,4.5
2017-12-16T03:14:58.969Z,4.56
2017-12-16T03:16:08.039Z,4.5
2017-12-16T03:17:17.107Z,4.58
2017-12-16T03:18:26.440Z,4.51
2017-12-16T03:19:35.237Z,4.54
2017-12-16T03:20:44.036Z,4.53
2017-12-16T03:21:52.578Z,4.5
2017-12-16T03:23:01.913Z,4.6
2017-12-16T03:24:10.713Z,4.61
2017-12-16T03:25:19.247Z,4.64
2017-12-16T03:26:28.050Z,4.68
2017-12-16T03:27:36.856Z,4.6
2017-12-16T03:28:45.656Z,4.58
2017-12-16T03:29:54.508Z,4.58
2017-12-16T03:31:03.312Z,4.68
2017-12-16T03:32:12.383Z,4.66
2017-12-16T03:33:21.180Z,4.66
2017-12-16T03:34:30.243Z,4.65
2017-12-16T03:35:39.041Z,4.74
2017-12-16T03:36:47.573Z,4.72
2017-12-16T03:37:56.369Z,4.64
2017-12-16T03:39:05.167Z,4.66
2017-12-16T03:40:13.695Z,4.71
2017-12-16T03:41:22.277Z,4.72
2017-12-16T03:42:31.075Z,4.68
2017-12-16T03:43:39.874Z,4.68
2017-12-16T03:44:48.938Z,4.71
2017-12-16T03:45:57.473Z,4.66
2017-12-16T03:47:06.540Z,4.75
2017-12-16T03:48:15.340Z,4.79
2017-12-16T03:49:23.876Z,4.76
2017-12-16T03:50:32.410Z,4.78
2017-12-16T03:51:40.950Z,4.84
2017-12-16T03:52:49.481Z,4.84
2017-12-16T03:53:58.278Z,4.72
2017-12-16T03:55:06.813Z,4.83
2017-12-16T03:56:15.877Z,4.76
2017-12-16T03:57:24.972Z,4.78
2017-12-16T03:58:33.823Z,4.85
2017-12-16T03:59:42.356Z,4.78
2017-12-16T04:00:50.889Z,4.79
2017-12-16T04:01:59.421Z,4.79
2017-12-16T04:03:07.954Z,4.87
2017-12-16T04:04:16.486Z,4.9
2017-12-16T04:05:25.554Z,4.85
2017-12-16T04:06:34.620Z,4.85
2017-12-16T04:07:43.150Z,4.92
2017-12-16T04:08:51.682Z,4.94
2017-12-16T04:10:00.215Z,4.92
2017-12-16T04:11:08.749Z,4.91
2017-12-16T04:12:17.811Z,4.9
2017-12-16T04:13:26.615Z,4.9
2017-12-16T04:14:35.680Z,4.87
2017-12-16T04:15:44.263Z,4.9
2017-12-16T04:16:52.796Z,4.92
2017-12-16T04:18:01.599Z,4.92
2017-12-16T04:19:10.397Z,4.9
2017-12-16T04:20:19.729Z,4.9
2017-12-16T04:21:28.526Z,4.92
2017-12-16T04:22:37.065Z,4.9
2017-12-16T04:23:46.131Z,4.91
2017-12-16T04:24:54.934Z,4.92
2017-12-16T04:26:03.461Z,4.95
2017-12-16T04:27:11.995Z,4.97
2017-12-16T04:28:21.329Z,4.92
2017-12-16T04:29:29.865Z,4.88
2017-12-16T04:30:38.664Z,4.95
2017-12-16T04:31:47.465Z,4.78
2017-12-16T04:32:56.578Z,4.76
2017-12-16T04:34:05.114Z,4.87
2017-12-16T04:35:13.644Z,4.84
2017-12-16T04:36:23.020Z,4.71
2017-12-16T04:37:31.813Z,4.74
2017-12-16T04:38:40.610Z,4.75
2017-12-16T04:39:49.678Z,4.69
2017-12-16T04:40:58.479Z,4.72
2017-12-16T04:42:07.280Z,4.58
2017-12-16T04:43:16.343Z,4.61
2017-12-16T04:44:25.464Z,4.47
2017-12-16T04:45:34.526Z,4.5
2017-12-16T04:46:43.588Z,4.4
2017-12-16T04:47:52.651Z,4.39
2017-12-16T04:49:01.187Z,4.35
2017-12-16T04:50:10.257Z,4.29
2017-12-16T04:51:19.327Z,4.2
2017-12-16T04:52:27.857Z,4.22
2017-12-16T04:53:36.655Z,4.28
2017-12-16T04:54:45.184Z,4.21
2017-12-16T04:55:54.042Z,4.17
2017-12-16T04:57:02.574Z,4.17
2017-12-16T04:58:11.103Z,4.11
2017-12-16T04:59:19.898Z,4.14
2017-12-16T05:00:28.699Z,4.14
2017-12-16T05:01:38.033Z,3.97
2017-12-16T05:02:46.565Z,4.07
2017-12-16T05:03:55.362Z,3.96
2017-12-16T05:05:04.165Z,4.02
2017-12-16T05:06:12.966Z,4.03
2017-12-16T05:07:21.814Z,4.08
2017-12-16T05:08:30.611Z,3.99
2017-12-16T05:09:39.685Z,4.11
2017-12-16T05:10:48.482Z,4.07
2017-12-16T05:11:57.818Z,4.08
2017-12-16T05:13:06.618Z,4.07
2017-12-16T05:14:15.409Z,4.03
2017-12-16T05:15:23.941Z,3.97
2017-12-16T05:16:33.000Z,3.94
2017-12-16T05:17:41.534Z,3.89
2017-12-16T05:18:50.652Z,4.02
2017-12-16T05:19:59.201Z,3.97
2017-12-16T05:21:08.265Z,3.97
2017-12-16T05:22:16.797Z,3.97
2017-12-16T05:23:25.598Z,3.92
2017-12-16T05:24:34.404Z,3.96
2017-12-16T05:25:43.469Z,3.92
2017-12-16T05:26:52.267Z,3.96
2017-12-16T05:28:01.067Z,3.93
2017-12-16T05:29:09.600Z,4
2017-12-16T05:30:18.401Z,4
2017-12-16T05:31:26.936Z,4.02
2017-12-16T05:32:36.268Z,3.99
2017-12-16T05:33:45.069Z,4
2017-12-16T05:34:54.135Z,3.93
2017-12-16T05:36:02.983Z,3.99
2017-12-16T05:37:11.782Z,3.94
2017-12-16T05:38:20.581Z,3.86
2017-12-16T05:39:29.650Z,3.89
2017-12-16T05:40:38.182Z,3.9
2017-12-16T05:41:47.565Z,3.86
2017-12-16T05:42:56.364Z,3.84
2017-12-16T05:44:05.162Z,3.79
2017-12-16T05:45:13.690Z,3.82
2017-12-16T05:46:22.758Z,3.74
2017-12-16T05:47:31.613Z,3.81
2017-12-16T05:48:40.943Z,3.69
2017-12-16T05:49:49.741Z,3.67
2017-12-16T05:50:58.540Z,3.69
2017-12-16T05:52:07.072Z,3.69
2017-12-16T05:53:15.874Z,3.54
2017-12-16T05:54:24.670Z,3.57
2017-12-16T05:55:33.466Z,3.51
2017-12-16T05:56:41.999Z,3.53
2017-12-16T05:57:50.538Z,3.42
2017-12-16T05:58:59.387Z,3.43
2017-12-16T06:00:08.716Z,3.4
2017-12-16T06:01:17.521Z,3.35
2017-12-16T06:02:26.321Z,3.42
2017-12-16T06:03:34.854Z,3.3
2017-12-16T06:04:43.387Z,3.3
2017-12-16T06:05:51.918Z,3.27
2017-12-16T06:07:00.454Z,3.32
2017-12-16T06:08:09.252Z,3.21
2017-12-16T06:09:18.048Z,3.29
2017-12-16T06:10:26.899Z,3.17
2017-12-16T06:11:35.693Z,3.2
2017-12-16T06:12:44.759Z,3.24
2017-12-16T06:13:53.292Z,3.29
2017-12-16T06:15:01.826Z,3.24
2017-12-16T06:16:10.625Z,3.26
2017-12-16T06:17:19.153Z,3.26
2017-12-16T06:18:27.951Z,3.27
2017-12-16T06:19:37.015Z,3.26
2017-12-16T06:20:45.810Z,3.19
2017-12-16T06:21:54.608Z,3.2
2017-12-16T06:23:03.142Z,3.2
2017-12-16T06:24:11.938Z,3.17
2017-12-16T06:25:20.469Z,3.16
2017-12-16T06:26:29.273Z,3.13
2017-12-16T06:27:37.850Z,3.11
2017-12-16T06:28:46.653Z,3.13
2017-12-16T06:29:55.982Z,3.13
2017-12-16T06:31:05.049Z,3.05
2017-12-16T06:32:13.583Z,3.09
2017-12-16T06:33:22.798Z,3.11
2017-12-16T06:34:31.331Z,3.13
2017-12-16T06:35:40.133Z,3.05
2017-12-16T06:36:48.662Z,3.08
2017-12-16T06:37:57.195Z,3.03
2017-12-16T06:39:05.990Z,3.02
2017-12-16T06:40:14.789Z,2.99
2017-12-16T06:41:23.587Z,2.99
2017-12-16T06:42:32.386Z,2.99
2017-12-16T06:43:41.188Z,3.01
2017-12-16T06:44:49.767Z,2.95
2017-12-16T06:45:58.565Z,2.93
2017-12-16T06:47:07.100Z,2.9
2017-12-16T06:48:16.166Z,2.91
2017-12-16T06:49:24.963Z,2.95
2017-12-16T06:50:33.499Z,2.87
2017-12-16T06:51:42.298Z,2.9
2017-12-16T06:52:51.119Z,2.87
2017-12-16T06:53:59.652Z,2.88
2017-12-16T06:55:08.447Z,2.9
2017-12-16T06:56:17.301Z,2.85
2017-12-16T06:57:26.098Z,2.78
2017-12-16T06:58:34.628Z,2.73
2017-12-16T06:59:43.689Z,2.78
2017-12-16T07:00:52.221Z,2.8
2017-12-16T07:02:00.755Z,2.67
2017-12-16T07:03:09.552Z,2.73
2017-12-16T07:04:18.619Z,2.73
2017-12-16T07:05:27.952Z,2.65
2017-12-16T07:06:36.491Z,2.62
2017-12-16T07:07:45.347Z,2.63
2017-12-16T07:08:53.867Z,2.62
2017-12-16T07:10:02.669Z,2.63
2017-12-16T07:11:11.460Z,2.63
2017-12-16T07:12:20.261Z,2.62
2017-12-16T07:13:28.786Z,2.62
2017-12-16T07:14:37.587Z,2.66
2017-12-16T07:15:46.655Z,2.63
2017-12-16T07:16:55.190Z,2.59
2017-12-16T07:18:03.986Z,2.6
2017-12-16T07:19:12.832Z,2.62
2017-12-16T07:20:21.634Z,2.58
2017-12-16T07:21:30.438Z,2.55
2017-12-16T07:22:39.236Z,2.59
2017-12-16T07:23:47.766Z,2.59
2017-12-16T07:24:56.829Z,2.58
2017-12-16T07:26:05.894Z,2.54
2017-12-16T07:27:14.967Z,2.51
2017-12-16T07:28:23.763Z,2.54
2017-12-16T07:29:32.293Z,2.52
2017-12-16T07:30:41.139Z,2.52
2017-12-16T07:31:50.200Z,2.55
2017-12-16T07:32:59.005Z,2.47
2017-12-16T07:34:07.818Z,2.58
2017-12-16T07:35:16.338Z,2.47
2017-12-16T07:36:25.141Z,2.54
2017-12-16T07:37:34.471Z,2.55
2017-12-16T07:38:43.272Z,2.52
2017-12-16T07:39:52.084Z,2.58
2017-12-16T07:41:01.423Z,2.58
2017-12-16T07:42:10.270Z,2.55
2017-12-16T07:43:19.338Z,2.59
2017-12-16T07:44:28.154Z,2.55
2017-12-16T07:45:37.040Z,2.59
2017-12-16T07:46:46.102Z,2.52
2017-12-16T07:47:55.216Z,2.66
2017-12-16T07:49:04.282Z,2.6
2017-12-16T07:50:13.346Z,2.55
2017-12-16T07:51:22.146Z,2.59
2017-12-16T07:52:31.212Z,2.67
2017-12-16T07:53:39.799Z,2.78
2017-12-16T07:54:48.595Z,2.78
2017-12-16T07:55:57.673Z,2.73
2017-12-16T07:57:06.483Z,2.73
2017-12-16T07:58:15.287Z,2.69
2017-12-16T07:59:24.106Z,2.85
2017-12-16T08:00:32.882Z,2.78
2017-12-16T08:01:41.679Z,2.8
2017-12-16T08:02:50.477Z,2.73
2017-12-16T08:03:59.276Z,2.83
2017-12-16T08:05:07.861Z,2.76
2017-12-16T08:06:16.684Z,2.93
2017-12-16T08:07:25.214Z,2.9
2017-12-16T08:08:34.278Z,2.87
2017-12-16T08:09:43.845Z,2.96
2017-12-16T08:10:52.372Z,3.08
2017-12-16T08:12:01.434Z,3.02
2017-12-16T08:13:10.230Z,3.09
2017-12-16T08:14:19.095Z,3.17
2017-12-16T08:15:27.627Z,3.14
2017-12-16T08:16:36.480Z,3.19
2017-12-16T08:17:45.547Z,3.23
2017-12-16T08:18:54.076Z,3.24
2017-12-16T08:20:02.874Z,3.34
2017-12-16T08:21:11.404Z,3.32
2017-12-16T08:22:19.937Z,3.35
2017-12-16T08:23:28.485Z,3.46
2017-12-16T08:24:37.280Z,3.45
2017-12-16T08:25:46.370Z,3.46
2017-12-16T08:26:54.909Z,3.46
2017-12-16T08:28:03.761Z,3.42
2017-12-16T08:29:13.105Z,3.45
2017-12-16T08:30:21.638Z,3.43
2017-12-16T08:31:30.170Z,3.35
2017-12-16T08:32:38.703Z,3.3
2017-12-16T08:33:47.239Z,3.3
2017-12-16T08:34:56.043Z,3.23
2017-12-16T08:36:04.841Z,3.23
2017-12-16T08:37:13.375Z,3.19
2017-12-16T08:38:21.907Z,3.19
2017-12-16T08:39:30.494Z,3.16
2017-12-16T08:40:39.824Z,3.2
2017-12-16T08:41:48.887Z,3.23
2017-12-16T08:42:57.958Z,3.23
2017-12-16T08:44:06.492Z,3.23
2017-12-16T08:45:15.027Z,3.19
2017-12-16T08:46:23.562Z,3.08
2017-12-16T08:47:32.628Z,3.19
2017-12-16T08:48:41.963Z,3.16
2017-12-16T08:49:50.494Z,3.14
2017-12-16T08:50:59.343Z,3.13
2017-12-16T08:52:08.143Z,3.14
2017-12-16T08:53:17.212Z,3.24
2017-12-16T08:54:25.744Z,3.23
2017-12-16T08:55:34.280Z,3.23
2017-12-16T08:56:43.081Z,3.3
2017-12-16T08:57:51.611Z,3.39
2017-12-16T08:59:00.406Z,3.58
2017-12-16T09:00:09.474Z,3.64
2017-12-16T09:01:18.006Z,3.71
2017-12-16T09:02:26.809Z,3.82
2017-12-16T09:03:35.879Z,3.84
2017-12-16T09:04:44.410Z,3.86
2017-12-16T09:05:53.209Z,3.86
2017-12-16T09:07:02.013Z,3.89
2017-12-16T09:08:11.138Z,3.93
2017-12-16T09:09:19.938Z,3.97
2017-12-16T09:10:28.740Z,3.9
2017-12-16T09:11:37.802Z,3.85
2017-12-16T09:12:46.333Z,3.94
2017-12-16T09:13:55.668Z,3.84
2017-12-16T09:15:04.733Z,3.82
2017-12-16T09:16:13.267Z,3.82
2017-12-16T09:17:22.604Z,3.81
2017-12-16T09:18:31.404Z,3.85
2017-12-16T09:19:40.514Z,3.82
2017-12-16T09:20:49.049Z,3.85
2017-12-16T09:21:57.583Z,3.84
2017-12-16T09:23:06.654Z,3.9
2017-12-16T09:24:15.458Z,3.82
2017-12-16T09:25:24.255Z,3.81
2017-12-16T09:26:33.073Z,3.85
2017-12-16T09:27:41.605Z,3.89
2017-12-16T09:28:50.142Z,3.89
2017-12-16T09:29:58.942Z,3.99
2017-12-16T09:31:07.529Z,3.93
2017-12-16T09:32:16.602Z,3.93
2017-12-16T09:33:25.402Z,3.89
2017-12-16T09:34:34.468Z,3.96
2017-12-16T09:35:43.536Z,3.97
2017-12-16T09:36:52.070Z,3.99
2017-12-16T09:38:00.874Z,3.96
2017-12-16T09:39:09.403Z,3.92
2017-12-16T09:40:18.471Z,4.04
2017-12-16T09:41:27.275Z,4.04
2017-12-16T09:42:36.995Z,4.02
2017-12-16T09:43:46.089Z,4.11
2017-12-16T09:44:54.929Z,4
2017-12-16T09:46:03.424Z,4.07
2017-12-16T09:47:12.489Z,4.07
2017-12-16T09:48:21.883Z,4.07
2017-12-16T09:49:30.939Z,4
2017-12-16T09:50:39.775Z,4.18
2017-12-16T09:51:48.842Z,4.15
2017-12-16T09:52:57.373Z,4.21
2017-12-16T09:54:06.225Z,4.2
2017-12-16T09:55:15.289Z,4.14
2017-12-16T09:56:24.097Z,4.21
2017-12-16T09:57:32.900Z,4.17
2017-12-16T09:58:42.152Z,4.22
2017-12-16T09:59:50.689Z,4.21
2017-12-16T10:00:59.494Z,4.28
2017-12-16T10:02:08.299Z,4.17
2017-12-16T10:03:16.830Z,4.2
2017-12-16T10:04:25.681Z,4.36
2017-12-16T10:05:34.214Z,4.35
2017-12-16T10:06:43.018Z,4.4
2017-12-16T10:07:52.068Z,4.38
2017-12-16T10:09:01.194Z,4.38
2017-12-16T10:10:10.264Z,4.39
2017-12-16T10:11:19.061Z,4.39
2017-12-16T10:12:27.860Z,4.44
2017-12-16T10:13:36.390Z,4.42
2017-12-16T10:14:44.951Z,4.48
2017-12-16T10:15:53.476Z,4.5
2017-12-16T10:17:02.009Z,4.51
2017-12-16T10:18:11.075Z,4.51
2017-12-16T10:19:19.614Z,4.58
2017-12-16T10:20:28.147Z,4.54
2017-12-16T10:21:36.730Z,4.51
2017-12-16T10:22:45.799Z,4.54
2017-12-16T10:23:54.599Z,4.56
2017-12-16T10:25:03.396Z,4.6
2017-12-16T10:26:12.192Z,4.6
2017-12-16T10:27:21.042Z,4.65
2017-12-16T10:28:30.165Z,4.72
2017-12-16T10:29:38.698Z,4.87
2017-12-16T10:30:47.766Z,4.9
2017-12-16T10:31:56.301Z,4.95
2017-12-16T10:33:05.371Z,4.98
2017-12-16T10:34:14.440Z,4.9
2017-12-16T10:35:22.970Z,4.94
2017-12-16T10:36:31.503Z,4.83
2017-12-16T10:37:40.304Z,4.92
2017-12-16T10:38:49.423Z,4.9
2017-12-16T10:39:58.221Z,5
2017-12-16T10:41:07.024Z,5.03
2017-12-16T10:42:16.086Z,4.95
2017-12-16T10:43:24.617Z,4.98
2017-12-16T10:44:33.152Z,5.08
2017-12-16T10:45:41.947Z,5.09
2017-12-16T10:46:50.483Z,5.08
2017-12-16T10:47:59.287Z,5.02
2017-12-16T10:49:07.818Z,5.12
2017-12-16T10:50:16.671Z,5.06
2017-12-16T10:51:25.475Z,5.16
2017-12-16T10:52:34.273Z,5.18
2017-12-16T10:53:43.340Z,5.16
2017-12-16T10:54:51.932Z,5.2
2017-12-16T10:56:00.688Z,5.16
2017-12-16T10:57:09.488Z,5.23
2017-12-16T10:58:18.293Z,5.2
2017-12-16T10:59:27.098Z,5.2
2017-12-16T11:00:35.630Z,5.15
2017-12-16T11:01:44.160Z,5.15
2017-12-16T11:02:53.235Z,5.1
2017-12-16T11:04:02.030Z,5.23
2017-12-16T11:05:11.104Z,5.21
2017-12-16T11:06:20.439Z,5.16
2017-12-16T11:07:29.291Z,5.21
2017-12-16T11:08:38.623Z,5.24
2017-12-16T11:09:47.153Z,5.27
2017-12-16T11:10:55.687Z,5.23
2017-12-16T11:12:04.492Z,5.24
2017-12-16T11:13:13.292Z,5.27
2017-12-16T11:14:21.829Z,5.33
2017-12-16T11:15:30.895Z,5.34
2017-12-16T11:16:39.962Z,5.28
2017-12-16T11:17:48.498Z,5.31
2017-12-16T11:18:57.567Z,5.34
2017-12-16T11:20:06.366Z,5.34
2017-12-16T11:21:15.166Z,5.39
2017-12-16T11:22:23.966Z,5.42
2017-12-16T11:23:32.768Z,5.31
2017-12-16T11:24:41.617Z,5.37
2017-12-16T11:25:50.156Z,5.41
2017-12-16T11:26:58.686Z,5.41
2017-12-16T11:28:07.222Z,5.41
2017-12-16T11:29:16.021Z,5.41
2017-12-16T11:30:24.822Z,5.45
2017-12-16T11:31:33.896Z,5.45
2017-12-16T11:32:42.699Z,5.41
2017-12-16T11:33:51.231Z,5.41
2017-12-16T11:35:00.044Z,5.42
2017-12-16T11:36:08.894Z,5.48
2017-12-16T11:37:17.426Z,5.48
2017-12-16T11:38:25.957Z,5.46
2017-12-16T11:39:34.757Z,5.49
2017-12-16T11:40:43.293Z,5.55
2017-12-16T11:41:52.356Z,5.45
2017-12-16T11:43:01.161Z,5.63
2017-12-16T11:44:09.991Z,5.52
2017-12-16T11:45:18.790Z,5.57
2017-12-16T11:46:27.601Z,5.54
2017-12-16T11:47:36.938Z,5.49
2017-12-16T11:48:45.743Z,5.59
2017-12-16T11:49:55.082Z,5.54
2017-12-16T11:51:03.614Z,5.57
2017-12-16T11:52:12.414Z,5.6
2017-12-16T11:53:21.214Z,5.6
2017-12-16T11:54:30.283Z,5.64
2017-12-16T11:55:39.118Z,5.63
2017-12-16T11:56:47.921Z,5.7
2017-12-16T11:57:56.505Z,5.66
2017-12-16T11:59:05.040Z,5.72
2017-12-16T12:00:13.568Z,5.62
2017-12-16T12:01:22.374Z,5.66
2017-12-16T12:02:31.175Z,5.78
2017-12-16T12:03:40.028Z,5.77
2017-12-16T12:04:48.559Z,5.77
2017-12-16T12:05:57.368Z,5.78
2017-12-16T12:07:06.433Z,5.78
2017-12-16T12:08:15.236Z,5.81
2017-12-16T12:09:24.033Z,5.84
2017-12-16T12:10:32.836Z,5.78
2017-12-16T12:11:41.640Z,5.87
2017-12-16T12:12:50.177Z,5.84
2017-12-16T12:13:58.706Z,5.84
2017-12-16T12:15:07.561Z,5.92
2017-12-16T12:16:16.366Z,5.98
2017-12-16T12:17:25.165Z,5.99
2017-12-16T12:18:33.700Z,6
2017-12-16T12:19:42.766Z,6
2017-12-16T12:20:51.574Z,5.91
2017-12-16T12:22:00.109Z,5.92
2017-12-16T12:23:08.912Z,5.99
2017-12-16T12:24:17.709Z,5.99
2017-12-16T12:25:26.241Z,5.95
2017-12-16T12:26:34.825Z,6.09
2017-12-16T12:27:43.371Z,6.07
2017-12-16T12:28:52.707Z,5.95
2017-12-16T12:30:01.508Z,5.96
2017-12-16T12:31:10.043Z,5.98
2017-12-16T12:32:19.109Z,5.98
2017-12-16T12:33:27.908Z,6.02
2017-12-16T12:34:36.443Z,6.03
2017-12-16T12:35:44.981Z,6.02
2017-12-16T12:36:53.909Z,6.03
2017-12-16T12:38:02.974Z,6.13
2017-12-16T12:39:11.776Z,6.1
2017-12-16T12:40:20.584Z,6.13
2017-12-16T12:41:29.118Z,6.13
2017-12-16T12:42:38.191Z,6.26
2017-12-16T12:43:47.525Z,6.25
2017-12-16T12:44:56.059Z,6.28
2017-12-16T12:46:04.595Z,6.24
2017-12-16T12:47:13.135Z,6.36
2017-12-16T12:48:22.206Z,6.43
2017-12-16T12:49:31.006Z,6.44
2017-12-16T12:50:39.540Z,6.39
2017-12-16T12:51:48.348Z,6.37
2017-12-16T12:52:57.687Z,6.31
2017-12-16T12:54:06.760Z,6.33
2017-12-16T12:55:15.293Z,6.29
2017-12-16T12:56:24.093Z,6.28
2017-12-16T12:57:32.894Z,6.29
2017-12-16T12:58:41.974Z,6.25
2017-12-16T12:59:50.510Z,6.25
2017-12-16T13:00:59.045Z,6.24
2017-12-16T13:02:07.576Z,6.25
2017-12-16T13:03:16.375Z,6.28
2017-12-16T13:04:25.443Z,6.28
2017-12-16T13:05:33.978Z,6.29
2017-12-16T13:06:42.777Z,6.31
2017-12-16T13:07:51.844Z,6.4
2017-12-16T13:09:00.381Z,6.47
2017-12-16T13:10:09.447Z,6.61
2017-12-16T13:11:18.012Z,6.6
2017-12-16T13:12:27.080Z,6.61
2017-12-16T13:13:35.887Z,6.72
2017-12-16T13:14:44.687Z,6.72
2017-12-16T13:15:53.489Z,6.78
2017-12-16T13:17:02.555Z,6.86
2017-12-16T13:18:11.405Z,6.85
2017-12-16T13:19:20.484Z,6.86
2017-12-16T13:20:29.282Z,6.82
2017-12-16T13:21:37.815Z,6.93
2017-12-16T13:22:46.347Z,6.97
2017-12-16T13:23:54.879Z,6.86
2017-12-16T13:25:03.675Z,7.01
2017-12-16T13:26:12.784Z,6.98
2017-12-16T13:27:21.315Z,6.94
2017-12-16T13:28:30.661Z,6.82
2017-12-16T13:29:39.446Z,6.85
2017-12-16T13:30:48.526Z,6.82
2017-12-16T13:31:57.365Z,6.86
2017-12-16T13:33:06.168Z,6.76
2017-12-16T13:34:14.967Z,6.76
2017-12-16T13:35:24.084Z,6.75
2017-12-16T13:36:32.881Z,6.65
2017-12-16T13:37:41.425Z,6.64
2017-12-16T13:38:49.961Z,6.6
2017-12-16T13:39:58.506Z,6.6
2017-12-16T13:41:07.041Z,6.58
2017-12-16T13:42:15.575Z,6.54
2017-12-16T13:43:24.382Z,6.49
2017-12-16T13:44:33.230Z,6.39
2017-12-16T13:45:42.124Z,6.44
2017-12-16T13:46:51.010Z,6.34
2017-12-16T13:47:59.838Z,6.24
2017-12-16T13:49:08.385Z,6.28
2017-12-16T13:50:16.925Z,6.25
2017-12-16T13:51:25.855Z,6.18
2017-12-16T13:52:34.943Z,6.13
2017-12-16T13:53:43.577Z,6.18
2017-12-16T13:54:52.170Z,6.13
2017-12-16T13:56:00.870Z,6.06
2017-12-16T13:57:09.516Z,6.1
2017-12-16T13:58:18.312Z,6.09
2017-12-16T13:59:26.852Z,6.02
2017-12-16T14:00:35.670Z,6.05
2017-12-16T14:01:45.019Z,6.03
2017-12-16T14:02:53.822Z,5.98
2017-12-16T14:04:02.940Z,5.95
2017-12-16T14:05:11.478Z,5.91
2017-12-16T14:06:20.544Z,5.78
2017-12-16T14:07:29.611Z,5.82
2017-12-16T14:08:38.944Z,5.84
2017-12-16T14:09:48.012Z,5.78
2017-12-16T14:10:57.080Z,5.8
2017-12-16T14:12:05.881Z,5.75
2017-12-16T14:13:14.960Z,5.69
2017-12-16T14:14:24.026Z,5.64
2017-12-16T14:15:32.881Z,5.57
2017-12-16T14:16:41.419Z,5.64
2017-12-16T14:17:49.949Z,5.57
2017-12-16T14:18:58.750Z,5.54
2017-12-16T14:20:07.554Z,5.48
2017-12-16T14:21:16.086Z,5.54
2017-12-16T14:22:24.881Z,5.48
2017-12-16T14:23:33.417Z,5.49
2017-12-16T14:24:41.950Z,5.46
2017-12-16T14:25:50.484Z,5.48
2017-12-16T14:26:59.330Z,5.49
2017-12-16T14:28:08.132Z,5.52
2017-12-16T14:29:16.932Z,5.45
2017-12-16T14:30:25.468Z,5.46
2017-12-16T14:31:34.268Z,5.41
2017-12-16T14:32:43.078Z,5.44
2017-12-16T14:33:51.610Z,5.37
2017-12-16T14:35:00.147Z,5.39
2017-12-16T14:36:09.211Z,5.37
2017-12-16T14:37:18.022Z,5.41
2017-12-16T14:38:26.824Z,5.34
2017-12-16T14:39:35.623Z,5.31
2017-12-16T14:40:44.670Z,5.42
2017-12-16T14:41:53.203Z,5.37
2017-12-16T14:43:02.052Z,5.39
2017-12-16T14:44:10.640Z,5.36
2017-12-16T14:45:19.442Z,5.39
2017-12-16T14:46:27.978Z,5.37
2017-12-16T14:47:36.794Z,5.36
2017-12-16T14:48:45.596Z,5.45
2017-12-16T14:49:54.663Z,5.39
2017-12-16T14:51:03.730Z,5.44
2017-12-16T14:52:12.262Z,5.37
2017-12-16T14:53:20.792Z,5.39
2017-12-16T14:54:29.593Z,5.49
2017-12-16T14:55:38.391Z,5.48
2017-12-16T14:56:47.463Z,5.46
2017-12-16T14:57:56.966Z,5.48
2017-12-16T14:59:05.499Z,5.52
2017-12-16T15:00:14.299Z,5.44
2017-12-16T15:01:22.891Z,5.41
2017-12-16T15:02:31.424Z,5.33
2017-12-16T15:03:39.956Z,5.41
2017-12-16T15:04:49.020Z,5.46
2017-12-16T15:05:57.822Z,5.34
2017-12-16T15:07:07.156Z,5.37
2017-12-16T15:08:15.957Z,5.37
2017-12-16T15:09:24.491Z,5.42
2017-12-16T15:10:33.289Z,5.45
2017-12-16T15:11:42.089Z,5.41
2017-12-16T15:12:51.160Z,5.33
2017-12-16T15:13:59.955Z,5.41
2017-12-16T15:15:08.755Z,5.33
2017-12-16T15:16:17.556Z,5.34
2017-12-16T15:17:26.090Z,5.37
2017-12-16T15:18:34.889Z,5.31